METAR Reports From Nearby Airports

 

KLUD - Decatur, Texas, USA
Distance from Wildwood: ESE 5mi, 8km
Updated: Jul 19, 2018 3:35pm
Clear
Clear
 Wind from SSW
Wind: SSW 7 mph , 11 km/h
Temperature: 109°F , 43°C
Dew Point: 55°F , 13°C
Humidity: 17%
Barometer: 29.84 inHg , 1010.5 hPa
Clouds: Clear
Visibility: 10 miles , 16 km
2018/07/19 20:35 KLUD 192035Z AUTO 20006KT 10SM CLR 43/13 A2984 RMK AO2 T04270127
KXBP - Bridgeport, Texas, USA
Distance from Wildwood: WSW 11mi, 18km
Updated: Jul 19, 2018 3:35pm
Clear
Clear
 Wind from SSW
Wind: SSW 6 mph , 9 km/h
Temperature: 108°F , 42°C
Dew Point: 55°F , 13°C
Humidity: 18%
Barometer: 29.84 inHg , 1010.5 hPa
Clouds: Clear
Visibility: 10 miles , 16 km
2018/07/19 20:35 KXBP 192035Z AUTO 21005KT 10SM CLR 42/13 A2984 RMK AO2 T04240128
 
K0F2 - Bowie, Texas, USA
Distance from Wildwood: NNW 24mi, 39km
Updated: Jul 19, 2018 3:35pm
Clear
Clear
 Wind from WSW
Wind: WSW 8 mph , 13 km/h
Temperature: 108°F , 42°C
Dew Point: 57°F , 14°C
Humidity: 19%
Barometer: 29.84 inHg , 1010.5 hPa
Clouds: Clear
Visibility: 10 miles , 16 km
2018/07/19 20:35 K0F2 192035Z AUTO 24007KT 210V270 10SM CLR 42/14 A2984 RMK AO2 T04160135
KDTO - Denton, Texas, USA
Distance from Wildwood: E 27mi, 44km
Updated: Jul 19, 2018 2:53pm
Clear
Clear
 Wind from S
Wind: S 12 mph , 19 km/h, Gust: 18 mph , 30 km/h
Temperature: 108°F , 42°C
Dew Point: 63°F , 17°C
Humidity: 23%
Barometer: 29.82 inHg , 1009.8 hPa
Clouds: Clear
Visibility: 10 miles , 16 km
2018/07/19 19:53 KDTO 191953Z 19010G16KT 10SM CLR 42/17 A2982 RMK AO2 SLP085 T04220167
 
KAFW - Ft Worth/Allianc, Texas, USA
Distance from Wildwood: SE 29mi, 46km
Updated: Jul 19, 2018 2:53pm
Clear
Clear
 Wind from SW
Wind: SW 8 mph , 13 km/h
Temperature: 108°F , 42°C
Dew Point: 59°F , 15°C
Humidity: 20%
Barometer: 29.83 inHg , 1010.2 hPa
Clouds: Clear
Visibility: 10 miles , 16 km
2018/07/19 19:53 KAFW 191953Z 22007KT 10SM CLR 42/15 A2983 RMK AO2 SLP076 T04220150
KFTW - Fort Worth, Texas, USA
Distance from Wildwood: SSE 34mi, 55km
Updated: Jul 19, 2018 2:53pm
Clear
Clear
 
Temperature: 106°F , 41°C
Dew Point: 63°F , 17°C
Humidity: 25%
Barometer: 29.83 inHg , 1010.2 hPa
Clouds: Clear
Visibility: 10 miles , 16 km
2018/07/19 19:53 KFTW 191953Z 10SM CLR 41/17 A2983 RMK AO2 SLP088 T04060172
 
KNFW - Fort Worth Nas, Texas, USA
Distance from Wildwood: SSE 36mi, 58km
Updated: Jul 19, 2018 2:52pm
Few Clouds
Few Clouds
 Wind from SSW
Wind: SSW 12 mph , 19 km/h, Gust: 16 mph , 26 km/h
Temperature: 108°F , 42°C
Dew Point: 57°F , 14°C
Humidity: 19%
Barometer: 29.83 inHg , 1010.2 hPa
Clouds: Few Clouds
Visibility: 10 miles , 16 km
Cloud details: Few Clouds 25000 ft
2018/07/19 19:52 KNFW 191952Z 20010G14KT 10SM FEW250 42/14 A2983 RMK AO2 SLP087 T04220139 $
KGLE - Gainesville, Texas, USA
Distance from Wildwood: NE 38mi, 61km
Updated: Jul 19, 2018 3:35pm
Clear
Clear
 Wind from calm
Wind: Calm
Temperature: 106°F , 41°C
Dew Point: 59°F , 15°C
Humidity: 22%
Barometer: 29.84 inHg , 1010.5 hPa
Clouds: Clear
Visibility: 10 miles , 16 km
2018/07/19 20:35 KGLE 192035Z AUTO 00000KT 10SM CLR 41/15 A2984 RMK AO2 T04140145
 
KMWL - Mineral Wells, Texas, USA
Distance from Wildwood: SW 41mi, 65km
Updated: Jul 19, 2018 2:53pm
Clear
Clear
 Wind from SSE
Wind: SSE 10 mph , 17 km/h
Temperature: 108°F , 42°C
Dew Point: 54°F , 12°C
Humidity: 17%
Barometer: 29.84 inHg , 1010.5 hPa
Clouds: Clear
Visibility: 10 miles , 16 km
2018/07/19 19:53 KMWL 191953Z AUTO 16009KT 10SM CLR 42/12 A2984 RMK AO2 SLP084 T04220122
KDFW - Dallas/Ft Worth, Texas, USA
Distance from Wildwood: ESE 45mi, 73km
Updated: Jul 19, 2018 2:53pm
Clear
Clear
 Wind from S
Wind: S 8 mph , 13 km/h, Gust: 16 mph , 26 km/h
Temperature: 106°F , 41°C
Dew Point: 63°F , 17°C
Humidity: 25%
Barometer: 29.82 inHg , 1009.8 hPa
Clouds: Clear
Visibility: 10 miles , 16 km
2018/07/19 19:53 KDFW 191953Z 19007G14KT 10SM CLR 41/17 A2982 RMK AO2 SLP087 T04110172